createdAt,value
2018-11-21T00:01:09.661Z,-2.53
2018-11-21T00:03:41.194Z,-2.64
2018-11-21T00:06:13.280Z,-2.64
2018-11-21T00:08:45.417Z,-2.50
2018-11-21T00:11:16.896Z,-2.38
2018-11-21T00:13:48.910Z,-2.36
2018-11-21T00:16:21.081Z,-2.32
2018-11-21T00:18:52.630Z,-2.24
2018-11-21T00:21:23.615Z,-2.27
2018-11-21T00:23:53.938Z,-2.29
2018-11-21T00:26:24.622Z,-2.43
2018-11-21T00:28:55.715Z,-2.43
2018-11-21T00:31:27.132Z,-2.52
2018-11-21T00:33:58.649Z,-2.53
2018-11-21T00:36:30.113Z,-2.50
2018-11-21T00:39:01.497Z,-2.44
2018-11-21T00:41:33.083Z,-2.44
2018-11-21T00:44:20.438Z,-2.36
2018-11-21T00:46:52.646Z,-2.36
2018-11-21T00:49:24.391Z,-2.38
2018-11-21T00:51:55.117Z,-2.40
2018-11-21T00:54:26.541Z,-2.42
2018-11-21T00:56:57.874Z,-2.63
2018-11-21T00:59:29.771Z,-2.70
2018-11-21T01:02:01.188Z,-2.61
2018-11-21T01:04:31.783Z,-2.62
2018-11-21T01:07:03.396Z,-2.74
2018-11-21T01:09:35.913Z,-2.86
2018-11-21T01:12:07.161Z,-2.74
2018-11-21T01:14:38.156Z,-2.62
2018-11-21T01:17:08.394Z,-2.65
2018-11-21T01:19:38.674Z,-2.59
2018-11-21T01:22:08.728Z,-2.52
2018-11-21T01:24:40.106Z,-2.42
2018-11-21T01:27:11.599Z,-2.41
2018-11-21T01:29:42.965Z,-2.36
2018-11-21T01:32:15.702Z,-2.37
2018-11-21T01:34:46.112Z,-2.38
2018-11-21T01:37:17.039Z,-2.29
2018-11-21T01:39:48.477Z,-2.22
2018-11-21T01:42:20.538Z,-2.22
2018-11-21T01:44:50.159Z,-2.22
2018-11-21T01:47:19.551Z,-2.19
2018-11-21T01:49:49.260Z,-2.10
2018-11-21T01:52:18.693Z,-2.04
2018-11-21T01:54:49.889Z,-2.13
2018-11-21T01:57:22.319Z,-2.21
2018-11-21T01:59:54.247Z,-2.23
2018-11-21T02:02:25.489Z,-2.34
2018-11-21T02:04:57.030Z,-2.34
2018-11-21T02:07:27.704Z,-2.41
2018-11-21T02:09:58.798Z,-2.41
2018-11-21T02:12:29.815Z,-2.34
2018-11-21T02:15:01.882Z,-2.43
2018-11-21T02:17:33.364Z,-2.55
2018-11-21T02:20:02.971Z,-2.69
2018-11-21T02:22:35.320Z,-2.67
2018-11-21T02:25:05.465Z,-2.60
2018-11-21T02:27:36.493Z,-2.60
2018-11-21T02:30:08.238Z,-2.61
2018-11-21T02:35:09.975Z,-2.65
2018-11-21T02:37:41.555Z,-2.62
2018-11-21T02:40:11.828Z,-2.57
2018-11-21T02:42:43.371Z,-2.58
2018-11-21T02:45:34.940Z,-2.63
2018-11-21T02:48:05.816Z,-2.76
2018-11-21T02:54:24.480Z,-3.01
2018-11-21T02:57:32.842Z,-3.11
2018-11-21T03:00:20.699Z,-3.30
2018-11-21T03:02:52.065Z,-3.53
2018-11-21T03:05:22.662Z,-3.65
2018-11-21T03:07:58.277Z,-3.71
2018-11-21T03:10:28.403Z,-3.70
2018-11-21T03:12:58.995Z,-3.67
2018-11-21T03:15:29.100Z,-3.60
2018-11-21T03:17:59.120Z,-3.43
2018-11-21T03:20:31.451Z,-3.35
2018-11-21T03:23:03.211Z,-3.38
2018-11-21T03:25:53.793Z,-3.32
2018-11-21T03:28:25.398Z,-3.18
2018-11-21T03:30:56.210Z,-3.07
2018-11-21T03:33:28.578Z,-3.01
2018-11-21T03:35:59.938Z,-2.77
2018-11-21T03:38:29.296Z,-2.60
2018-11-21T03:40:59.686Z,-2.42
2018-11-21T03:43:30.261Z,-2.24
2018-11-21T03:46:00.907Z,-2.08
2018-11-21T03:48:31.823Z,-1.99
2018-11-21T03:51:03.747Z,-1.88
2018-11-21T03:53:35.076Z,-1.75
2018-11-21T03:56:05.365Z,-1.67
2018-11-21T03:58:38.459Z,-1.61
2018-11-21T04:01:09.962Z,-1.57
2018-11-21T04:03:40.694Z,-1.53
2018-11-21T04:06:11.488Z,-1.47
2018-11-21T04:08:42.599Z,-1.45
2018-11-21T04:11:12.105Z,-1.39
2018-11-21T04:13:43.699Z,-1.38
2018-11-21T04:16:13.991Z,-1.41
2018-11-21T04:18:44.681Z,-1.39
2018-11-21T04:21:15.941Z,-1.34
2018-11-21T04:23:47.142Z,-1.36
2018-11-21T04:26:18.471Z,-1.36
2018-11-21T04:29:07.592Z,-1.36
2018-11-21T04:31:39.646Z,-1.34
2018-11-21T04:34:10.329Z,-1.27
2018-11-21T04:36:40.037Z,-1.26
2018-11-21T04:39:11.769Z,-1.20
2018-11-21T04:41:42.605Z,-1.12
2018-11-21T04:44:13.342Z,-1.05
2018-11-21T04:46:44.940Z,-1.00
2018-11-21T04:49:15.439Z,-0.96
2018-11-21T04:51:45.783Z,-0.89
2018-11-21T04:54:16.219Z,-0.84
2018-11-21T04:56:45.923Z,-0.76
2018-11-21T04:59:55.131Z,-0.69
2018-11-21T05:02:25.900Z,-0.57
2018-11-21T05:04:59.182Z,-0.58
2018-11-21T05:07:28.685Z,-0.64
2018-11-21T05:10:00.982Z,-0.60
2018-11-21T05:12:32.259Z,-0.57
2018-11-21T05:15:10.215Z,-0.53
2018-11-21T05:17:41.300Z,-0.54
2018-11-21T05:20:11.961Z,-0.49
2018-11-21T05:22:43.734Z,-0.30
2018-11-21T05:25:17.959Z,-0.04
2018-11-21T05:27:49.486Z,0.03
2018-11-21T05:30:19.990Z,0.22
2018-11-21T05:32:51.624Z,0.23
2018-11-21T05:35:24.041Z,0.33
2018-11-21T05:37:53.648Z,0.38
2018-11-21T05:40:24.490Z,0.41
2018-11-21T05:43:17.035Z,0.42
2018-11-21T05:45:48.633Z,0.39
2018-11-21T05:48:19.221Z,0.41
2018-11-21T05:50:48.966Z,0.45
2018-11-21T05:53:19.036Z,0.43
2018-11-21T05:55:50.803Z,0.44
2018-11-21T05:58:25.704Z,0.42
2018-11-21T06:00:57.140Z,0.46
2018-11-21T06:04:03.532Z,0.52
2018-11-21T06:06:34.869Z,0.50
2018-11-21T06:09:07.371Z,0.55
2018-11-21T06:11:38.211Z,0.52
2018-11-21T06:14:08.421Z,0.51
2018-11-21T06:16:49.760Z,0.56
2018-11-21T06:19:21.431Z,0.53
2018-11-21T06:22:07.427Z,0.61
2018-11-21T06:24:40.128Z,0.59
2018-11-21T06:27:09.761Z,0.60
2018-11-21T06:29:44.185Z,0.62
2018-11-21T06:32:16.022Z,0.65
2018-11-21T06:34:48.047Z,0.71
2018-11-21T06:37:20.014Z,0.67
2018-11-21T06:39:51.283Z,0.69
2018-11-21T06:42:23.258Z,0.70
2018-11-21T06:44:54.008Z,0.74
2018-11-21T06:47:40.059Z,0.79
2018-11-21T06:50:09.801Z,0.83
2018-11-21T06:52:40.780Z,1.00
2018-11-21T06:55:12.401Z,1.07
2018-11-21T06:57:43.400Z,1.03
2018-11-21T07:00:15.287Z,1.01
2018-11-21T07:02:45.249Z,1.04
2018-11-21T07:05:16.729Z,1.07
2018-11-21T07:07:46.817Z,1.00
2018-11-21T07:10:17.452Z,0.94
2018-11-21T07:12:47.794Z,1.00
2018-11-21T07:15:19.594Z,0.97
2018-11-21T07:17:50.227Z,1.05
2018-11-21T07:20:28.242Z,1.05
2018-11-21T07:23:00.108Z,1.19
2018-11-21T07:25:30.905Z,1.19
2018-11-21T07:28:03.286Z,1.19
2018-11-21T07:30:34.296Z,1.25
2018-11-21T07:33:05.222Z,1.31
2018-11-21T07:35:36.090Z,1.32
2018-11-21T07:38:06.165Z,1.34
2018-11-21T07:40:37.995Z,1.35
2018-11-21T07:43:07.754Z,1.44
2018-11-21T07:45:39.877Z,1.44
2018-11-21T07:48:11.336Z,1.44
2018-11-21T07:50:42.280Z,1.45
2018-11-21T07:53:14.769Z,1.44
2018-11-21T07:55:47.070Z,1.48
2018-11-21T07:58:19.134Z,1.52
2018-11-21T08:01:14.527Z,1.49
2018-11-21T08:04:07.557Z,1.55
2018-11-21T08:06:52.918Z,1.61
2018-11-21T08:09:44.369Z,1.64
2018-11-21T08:12:24.212Z,1.79
2018-11-21T08:15:19.447Z,1.97
2018-11-21T08:22:07.437Z,2.09
2018-11-21T08:24:56.886Z,2.07
2018-11-21T08:27:44.522Z,2.17
2018-11-21T08:30:14.805Z,2.15
2018-11-21T08:32:45.764Z,2.16
2018-11-21T08:35:17.732Z,2.07
2018-11-21T08:37:49.469Z,2.14
2018-11-21T08:40:19.208Z,2.08
2018-11-21T08:42:50.593Z,2.27
2018-11-21T08:45:21.646Z,2.21
2018-11-21T08:47:52.673Z,2.28
2018-11-21T08:50:23.663Z,2.33
2018-11-21T08:52:55.248Z,2.28
2018-11-21T08:55:26.573Z,2.42
2018-11-21T08:57:58.377Z,2.71
2018-11-21T09:00:29.916Z,2.68
2018-11-21T09:03:01.014Z,2.78
2018-11-21T09:05:30.541Z,2.78
2018-11-21T09:08:00.718Z,2.89
2018-11-21T09:13:02.100Z,2.80
2018-11-21T09:15:33.490Z,2.81
2018-11-21T09:18:06.448Z,2.97
2018-11-21T09:20:37.540Z,2.84
2018-11-21T09:23:08.557Z,2.93
2018-11-21T09:25:39.147Z,3.01
2018-11-21T09:28:09.278Z,2.99
2018-11-21T09:30:39.493Z,2.96
2018-11-21T09:33:11.959Z,3.14
2018-11-21T09:35:41.727Z,3.05
2018-11-21T09:38:11.557Z,3.14
2018-11-21T09:40:43.963Z,3.16
2018-11-21T09:43:16.363Z,3.11
2018-11-21T09:45:48.050Z,3.11
2018-11-21T09:48:18.986Z,3.06
2018-11-21T09:50:50.743Z,3.04
2018-11-21T09:53:22.788Z,3.17
2018-11-21T09:55:53.020Z,3.02
2018-11-21T09:58:23.210Z,3.07
2018-11-21T10:01:48.503Z,3.22
2018-11-21T10:04:19.737Z,3.11
2018-11-21T10:06:50.713Z,3.07
2018-11-21T10:09:24.566Z,3.13
2018-11-21T10:11:55.952Z,3.05
2018-11-21T10:14:26.810Z,2.96
2018-11-21T10:16:58.687Z,2.90
2018-11-21T10:19:30.236Z,2.87
2018-11-21T10:22:01.376Z,2.81
2018-11-21T10:24:32.331Z,2.83
2018-11-21T10:27:02.793Z,2.78
2018-11-21T10:29:59.038Z,2.78
2018-11-21T10:32:29.425Z,2.94
2018-11-21T10:35:00.732Z,2.99
2018-11-21T10:37:30.893Z,2.97
2018-11-21T10:40:01.775Z,3.17
2018-11-21T10:42:34.713Z,3.31
2018-11-21T10:45:07.264Z,3.48
2018-11-21T10:47:37.757Z,3.31
2018-11-21T10:50:09.579Z,3.26
2018-11-21T10:52:40.214Z,3.27
2018-11-21T10:55:10.036Z,3.38
2018-11-21T10:57:58.407Z,3.35
2018-11-21T11:00:47.366Z,3.15
2018-11-21T11:03:21.937Z,3.22
2018-11-21T11:06:04.710Z,3.32
2018-11-21T11:08:53.155Z,3.58
2018-11-21T11:11:57.781Z,3.69
2018-11-21T11:14:57.189Z,3.63
2018-11-21T11:18:01.835Z,3.55
2018-11-21T11:20:52.916Z,3.83
2018-11-21T11:23:48.364Z,3.75
2018-11-21T11:26:36.216Z,3.69
2018-11-21T11:29:37.769Z,4.10
2018-11-21T11:32:15.713Z,3.86
2018-11-21T11:35:34.225Z,3.57
2018-11-21T11:38:23.494Z,3.64
2018-11-21T11:41:29.213Z,3.55
2018-11-21T11:44:24.822Z,3.23
2018-11-21T11:47:22.341Z,3.19
2018-11-21T11:50:08.545Z,3.26
2018-11-21T11:52:56.013Z,3.65
2018-11-21T11:55:41.949Z,3.63
2018-11-21T11:58:42.127Z,3.57
2018-11-21T12:01:31.863Z,3.57
2018-11-21T12:04:20.322Z,3.51
2018-11-21T12:07:25.419Z,3.55
2018-11-21T12:10:14.455Z,3.42
2018-11-21T12:13:05.707Z,3.22
2018-11-21T12:16:02.796Z,3.32
2018-11-21T12:18:57.777Z,3.18
2018-11-21T12:21:53.293Z,3.21
2018-11-21T12:24:49.772Z,3.41
2018-11-21T12:27:39.464Z,3.65
2018-11-21T12:30:29.201Z,3.77
2018-11-21T12:33:17.605Z,3.40
2018-11-21T12:36:04.416Z,3.55
2018-11-21T12:38:53.248Z,3.72
2018-11-21T12:41:45.670Z,3.61
2018-11-21T12:44:38.758Z,3.52
2018-11-21T12:47:28.939Z,3.50
2018-11-21T12:50:14.700Z,3.60
2018-11-21T12:53:05.401Z,3.72
2018-11-21T12:55:53.874Z,3.87
2018-11-21T12:58:56.145Z,3.79
2018-11-21T13:01:35.273Z,3.81
2018-11-21T13:04:27.110Z,3.95
2018-11-21T13:07:28.045Z,3.94
2018-11-21T13:10:27.122Z,3.79
2018-11-21T13:13:15.646Z,3.96
2018-11-21T13:16:31.688Z,3.59
2018-11-21T13:19:24.584Z,3.20
2018-11-21T13:22:15.965Z,3.01
2018-11-21T13:25:09.137Z,2.91
2018-11-21T13:27:57.524Z,3.30
2018-11-21T13:31:12.135Z,3.33
2018-11-21T13:34:00.384Z,3.52
2018-11-21T13:37:00.627Z,3.54
2018-11-21T13:39:47.922Z,3.48
2018-11-21T13:42:54.823Z,3.45
2018-11-21T13:45:42.641Z,3.43
2018-11-21T13:48:26.897Z,3.51
2018-11-21T13:51:27.101Z,3.48
2018-11-21T13:54:15.143Z,3.24
2018-11-21T13:57:02.142Z,3.12
2018-11-21T13:59:38.822Z,3.16
2018-11-21T14:02:09.468Z,2.98
2018-11-21T14:04:57.840Z,2.96
2018-11-21T14:07:34.694Z,3.02
2018-11-21T14:10:35.830Z,3.12
2018-11-21T14:13:06.186Z,3.09
2018-11-21T14:15:36.102Z,3.20
2018-11-21T14:18:06.408Z,3.19
2018-11-21T14:20:45.154Z,3.12
2018-11-21T14:23:16.690Z,3.15
2018-11-21T14:25:47.094Z,3.11
2018-11-21T14:28:20.191Z,3.00
2018-11-21T14:30:50.406Z,2.94
2018-11-21T14:33:21.149Z,2.95
2018-11-21T14:35:56.020Z,2.90
2018-11-21T14:38:33.716Z,2.92
2018-11-21T14:41:05.457Z,2.76
2018-11-21T14:43:36.331Z,2.70
2018-11-21T14:46:16.411Z,2.71
2018-11-21T14:48:47.477Z,2.72
2018-11-21T14:51:17.279Z,2.84
2018-11-21T14:53:50.411Z,2.88
2018-11-21T14:56:43.630Z,2.83
2018-11-21T14:59:14.692Z,2.79
2018-11-21T15:01:46.263Z,2.78
2018-11-21T15:04:18.885Z,2.84
2018-11-21T15:06:49.669Z,2.86
2018-11-21T15:09:19.379Z,2.79
2018-11-21T15:11:49.470Z,2.78
2018-11-21T15:14:23.512Z,2.76
2018-11-21T15:16:54.863Z,2.71
2018-11-21T15:19:25.459Z,2.68
2018-11-21T15:21:55.914Z,2.71
2018-11-21T15:24:27.503Z,2.69
2018-11-21T15:27:06.758Z,2.62
2018-11-21T15:29:48.247Z,2.61
2018-11-21T15:32:18.127Z,2.66
2018-11-21T15:34:48.698Z,2.69
2018-11-21T15:37:21.595Z,2.69
2018-11-21T15:39:54.266Z,2.69
2018-11-21T15:42:27.623Z,2.59
2018-11-21T15:45:04.012Z,2.62
2018-11-21T15:47:46.210Z,2.65
2018-11-21T15:50:16.887Z,2.69
2018-11-21T15:52:53.046Z,2.68
2018-11-21T15:55:26.452Z,2.67
2018-11-21T15:58:24.901Z,2.69
2018-11-21T16:01:03.365Z,2.68
2018-11-21T16:03:34.592Z,2.66
2018-11-21T16:06:04.679Z,2.66
2018-11-21T16:08:35.701Z,2.66
2018-11-21T16:11:05.588Z,2.69
2018-11-21T16:13:37.133Z,2.71
2018-11-21T16:16:07.905Z,2.71
2018-11-21T16:18:39.965Z,2.71
2018-11-21T16:21:11.781Z,2.74
2018-11-21T16:23:43.975Z,2.74
2018-11-21T16:26:13.448Z,2.72
2018-11-21T16:28:45.024Z,2.75
2018-11-21T16:31:16.871Z,2.77
2018-11-21T16:33:47.929Z,2.75
2018-11-21T16:36:18.009Z,2.76
2018-11-21T16:38:49.194Z,2.79
2018-11-21T16:41:19.552Z,2.77
2018-11-21T16:43:50.294Z,2.76
2018-11-21T16:46:20.917Z,2.71
2018-11-21T16:48:51.369Z,2.69
2018-11-21T16:51:20.677Z,2.68
2018-11-21T16:53:51.370Z,2.60
2018-11-21T16:56:25.213Z,2.63
2018-11-21T16:58:55.840Z,2.63
2018-11-21T17:01:26.927Z,2.69
2018-11-21T17:03:57.101Z,2.68
2018-11-21T17:06:28.436Z,2.64
2018-11-21T17:08:58.883Z,2.63
2018-11-21T17:11:30.641Z,2.65
2018-11-21T17:14:09.773Z,2.68
2018-11-21T17:16:48.260Z,2.70
2018-11-21T17:19:18.278Z,2.71
2018-11-21T17:21:49.066Z,2.66
2018-11-21T17:24:20.349Z,2.61
2018-11-21T17:26:51.588Z,2.59
2018-11-21T17:29:35.684Z,2.60
2018-11-21T17:32:05.669Z,2.56
2018-11-21T17:34:38.741Z,2.52
2018-11-21T17:37:29.758Z,2.54
2018-11-21T17:40:00.800Z,2.49
2018-11-21T17:42:34.561Z,2.53
2018-11-21T17:45:05.576Z,2.54
2018-11-21T17:47:36.079Z,2.49
2018-11-21T17:50:08.507Z,2.52
2018-11-21T17:52:49.480Z,2.51
2018-11-21T17:55:20.683Z,2.45
2018-11-21T17:57:53.510Z,2.51
2018-11-21T18:00:24.899Z,2.49
2018-11-21T18:02:57.158Z,2.54
2018-11-21T18:05:29.546Z,2.51
2018-11-21T18:08:07.311Z,2.52
2018-11-21T18:10:40.231Z,2.60
2018-11-21T18:13:12.851Z,2.56
2018-11-21T18:15:43.809Z,2.55
2018-11-21T18:18:31.016Z,2.51
2018-11-21T18:21:02.005Z,2.47
2018-11-21T18:23:45.322Z,2.51
2018-11-21T18:26:20.578Z,2.44
2018-11-21T18:28:51.216Z,2.41
2018-11-21T18:31:24.107Z,2.43
2018-11-21T18:33:56.988Z,2.41
2018-11-21T18:36:46.319Z,2.47
2018-11-21T18:39:18.183Z,2.48
2018-11-21T18:41:49.930Z,2.43
2018-11-21T18:44:30.994Z,2.42
2018-11-21T18:47:02.598Z,2.42
2018-11-21T18:50:00.074Z,2.49
2018-11-21T18:52:34.565Z,2.51
2018-11-21T18:55:07.867Z,2.48
2018-11-21T18:58:16.047Z,2.45
2018-11-21T19:00:50.093Z,2.43
2018-11-21T19:03:20.209Z,2.39
2018-11-21T19:05:51.773Z,2.39
2018-11-21T19:08:21.393Z,2.43
2018-11-21T19:11:09.241Z,2.48
2018-11-21T19:13:39.751Z,2.50
2018-11-21T19:16:10.155Z,2.52
2018-11-21T19:18:40.775Z,2.48
2018-11-21T19:21:13.674Z,2.49
2018-11-21T19:23:46.345Z,2.42
2018-11-21T19:26:40.841Z,2.43
2018-11-21T19:29:14.324Z,2.47
2018-11-21T19:32:03.324Z,2.46
2018-11-21T19:34:33.483Z,2.40
2018-11-21T19:37:04.987Z,2.48
2018-11-21T19:39:35.517Z,2.48
2018-11-21T19:42:06.114Z,2.51
2018-11-21T19:44:38.681Z,2.53
2018-11-21T19:47:24.607Z,2.49
2018-11-21T19:49:55.305Z,2.48
2018-11-21T19:52:35.099Z,2.52
2018-11-21T19:55:13.420Z,2.53
2018-11-21T19:57:43.431Z,2.55
2018-11-21T20:00:27.825Z,2.58
2018-11-21T20:02:58.749Z,2.57
2018-11-21T20:05:28.996Z,2.58
2018-11-21T20:08:01.062Z,2.55
2018-11-21T20:10:36.568Z,2.53
2018-11-21T20:13:07.423Z,2.57
2018-11-21T20:15:39.180Z,2.56
2018-11-21T20:18:09.118Z,2.57
2018-11-21T20:20:39.363Z,2.56
2018-11-21T20:23:09.490Z,2.60
2018-11-21T20:25:46.567Z,2.60
2018-11-21T20:28:21.564Z,2.60
2018-11-21T20:30:52.216Z,2.63
2018-11-21T20:33:24.397Z,2.61
2018-11-21T20:35:55.151Z,2.57
2018-11-21T20:38:39.774Z,2.51
2018-11-21T20:41:32.339Z,2.49
2018-11-21T20:44:15.405Z,2.44
2018-11-21T20:46:50.219Z,2.49
2018-11-21T20:49:24.377Z,2.51
2018-11-21T20:51:56.700Z,2.42
2018-11-21T20:54:28.175Z,2.52
2018-11-21T20:56:59.740Z,2.50
2018-11-21T20:59:30.600Z,2.54
2018-11-21T21:02:01.840Z,2.50
2018-11-21T21:04:32.080Z,2.50
2018-11-21T21:07:02.455Z,2.45
2018-11-21T21:09:34.057Z,2.51
2018-11-21T21:12:05.611Z,2.49
2018-11-21T21:14:37.072Z,2.52
2018-11-21T21:17:33.625Z,2.57
2018-11-21T21:20:04.138Z,2.57
2018-11-21T21:22:45.372Z,2.53
2018-11-21T21:25:17.516Z,2.55
2018-11-21T21:27:48.401Z,2.54
2018-11-21T21:30:20.875Z,2.50
2018-11-21T21:32:50.750Z,2.57
2018-11-21T21:35:22.451Z,2.62
2018-11-21T21:37:53.002Z,2.58
2018-11-21T21:40:23.965Z,2.55
2018-11-21T21:43:10.322Z,2.53
2018-11-21T21:45:43.109Z,2.57
2018-11-21T21:48:16.275Z,2.57
